• Join FlightAware (Why Join?)
  • Login
  • US Flag 
06:50AM EST


 

Airport Tracker/Info


-or-


 

Live Flight TrackerFlight Track Log ✈ N483DA ✈ 21-Jun-2013 ✈ KOCF - KSFB

Flight Track Log - Related Links

Times and Time Zones

All times are in EDT time to prevent confusion due to time zone crossing. See the N483DA flight status page for this flight to view local times or setup timezone preferences in your user account.

Time Position Orientation Groundspeed Altitude Reporting Facility
EDT Latitude Longitude Course Direction KTS MPH feet Rate Location/Type
12:32PM 29.2419 -82.2428 117° Southeast 98 113 4,800  Level Jacksonville Center
12:33PM 29.2272 -82.2097 117° Southeast 120 138 4,900  Climbing Jacksonville Center
12:34PM 29.2081 -82.1717 120° Southeast 129 148 4,900  Level Jacksonville Center
12:35PM 29.1956 -82.1408 115° Southeast 131 151 5,000  Climbing Jacksonville Center
12:37PM 29.1667 -82.0667 114° Southeast 133 153 4,900  Descending Orlando TRACON
12:38PM 29.1500 -82.0167 111° Southeast 133 153 5,000  Climbing Orlando TRACON
12:39PM 29.1333 -81.9833 120° Southeast 132 152 4,900 -60 Descending Orlando TRACON
12:40PM 29.1167 -81.9500 120° Southeast 132 152 4,900  Level Orlando TRACON
12:41PM 29.1000 -81.9167 120° Southeast 132 152 4,900  Level Orlando TRACON
12:42PM 29.0667 -81.8833 139° Southeast 132 152 4,900  Level Orlando TRACON
12:43PM 29.0500 -81.8500 120° Southeast 131 151 5,000  Climbing Orlando TRACON
12:44PM 29.0167 -81.8167 139° Southeast 132 152 4,900  Descending Orlando TRACON
12:45PM 29.0000 -81.7833 120° Southeast 128 147 5,000  Climbing Orlando TRACON
12:46PM 28.9833 -81.7500 120° Southeast 128 147 4,900 -60 Descending Orlando TRACON
12:47PM 28.9500 -81.7333 156° South 129 148 4,900 -180 Level Orlando TRACON
12:48PM 28.9333 -81.7000 120° Southeast 127 146 4,600 -480 Descending Orlando TRACON
12:49PM 28.9167 -81.6667 120° Southeast 122 140 4,000 -600 Descending Orlando TRACON
12:50PM 28.8833 -81.6500 156° South 123 142 3,500 -480 Descending Orlando TRACON
12:51PM 28.8500 -81.6333 156° South 121 139 3,000 -300 Descending Orlando TRACON
12:52PM 28.8167 -81.6167 156° South 122 140 3,000  Level Orlando TRACON
12:53PM 28.8000 -81.6000 139° Southeast 114 131 3,000  Level Orlando TRACON
12:54PM 28.7667 -81.5833 156° South 116 133 3,000  Level Orlando TRACON
12:55PM 28.7667 -81.5500 90° East 125 144 3,000  Level Orlando TRACON
12:56PM 28.7667 -81.5167 90° East 115 132 3,100  Climbing Orlando TRACON
12:57PM 28.7667 -81.4833 90° East 121 139 3,100 -300 Level Orlando TRACON
12:58PM 28.7667 -81.4500 90° East 118 136 2,600 -840 Descending Orlando TRACON
12:59PM 28.7667 -81.4000 90° East 140 161 1,500 -540 Descending Orlando TRACON
01:00PM 28.7667 -81.3667 90° East 105 121 1,600  Climbing Orlando TRACON
01:01PM 28.7667 -81.3333 90° East 121 139 1,600 -300 Level Orlando TRACON
01:02PM 28.7667 -81.3000 90° East 104 120 1,100 -600 Descending Orlando TRACON
01:04PM 28.7667 -81.2447 90° East  Level FlightAware Approximate
01:11PM 28.7667 -81.2333 90° East  Level FlightAware Approximate
01:12PM 28.7767 -81.2355 90° East  Level Estimated
01:13PM 28.7767 -81.2355 90° East  Level Estimated
01:14PM 28.7767 -81.2355 90° East  Level Estimated